Terminal Aerodrome Forecast
Issued by NWS

Home | Current Version | Previous Version | Text Only | Print | Product List | Glossary On
Versions: 1 2 3 4 5 6 7 8 9 10 11 12 13 14 15 16 17 18 19 20 21 22 23 24
000
FTUS45 KGJT 202325
TAFEGE
TAF
KEGE 202325Z 2100/2124 26005KT P6SM FEW120 SCT150
     FM210200 09006KT P6SM FEW110 SCT200
     FM210600 VRB03KT P6SM SCT100 BKN200
     FM211200 VRB03KT P6SM VCSH SCT060 BKN080
     FM211900 26005KT P6SM SCT070 BKN140
      AMD LTD TO CLD VIS AND WIND 2101/2113=

USA.gov is the U.S. government's official web portal to all federal, state and local government web resources and services.